sensor_id;sensor_type;location;lat;lon;timestamp;P1;durP1;ratioP1;P2;durP2;ratioP2
12425;SDS011;6277;49.824;9.562;2023-06-14T00:02:16;2.50;;;1.92;;
12425;SDS011;6277;49.824;9.562;2023-06-14T00:04:42;3.33;;;1.98;;
12425;SDS011;6277;49.824;9.562;2023-06-14T00:07:08;2.75;;;1.80;;
12425;SDS011;6277;49.824;9.562;2023-06-14T00:09:34;3.05;;;2.10;;
12425;SDS011;6277;49.824;9.562;2023-06-14T00:11:59;2.80;;;2.13;;
12425;SDS011;6277;49.824;9.562;2023-06-14T00:14:25;3.00;;;2.22;;
12425;SDS011;6277;49.824;9.562;2023-06-14T00:16:51;2.60;;;1.90;;
12425;SDS011;6277;49.824;9.562;2023-06-14T00:19:23;2.63;;;2.20;;
12425;SDS011;6277;49.824;9.562;2023-06-14T00:21:49;3.35;;;2.10;;
12425;SDS011;6277;49.824;9.562;2023-06-14T00:24:16;2.70;;;1.85;;
12425;SDS011;6277;49.824;9.562;2023-06-14T00:26:42;2.88;;;1.95;;
12425;SDS011;6277;49.824;9.562;2023-06-14T00:29:08;2.78;;;1.83;;
12425;SDS011;6277;49.824;9.562;2023-06-14T00:31:33;3.25;;;1.95;;
12425;SDS011;6277;49.824;9.562;2023-06-14T00:33:58;3.13;;;2.20;;
12425;SDS011;6277;49.824;9.562;2023-06-14T00:36:24;2.67;;;1.80;;
12425;SDS011;6277;49.824;9.562;2023-06-14T00:38:50;2.75;;;2.08;;
12425;SDS011;6277;49.824;9.562;2023-06-14T00:41:15;3.38;;;2.33;;
12425;SDS011;6277;49.824;9.562;2023-06-14T00:43:40;2.53;;;2.00;;
12425;SDS011;6277;49.824;9.562;2023-06-14T00:46:06;3.83;;;2.10;;
12425;SDS011;6277;49.824;9.562;2023-06-14T00:48:32;2.45;;;1.75;;
12425;SDS011;6277;49.824;9.562;2023-06-14T00:50:58;2.92;;;2.15;;
12425;SDS011;6277;49.824;9.562;2023-06-14T00:53:28;3.08;;;1.80;;
12425;SDS011;6277;49.824;9.562;2023-06-14T00:55:56;2.35;;;1.95;;
12425;SDS011;6277;49.824;9.562;2023-06-14T00:58:21;2.90;;;1.98;;
12425;SDS011;6277;49.824;9.562;2023-06-14T01:00:47;2.22;;;1.77;;
12425;SDS011;6277;49.824;9.562;2023-06-14T01:03:13;2.60;;;2.05;;
12425;SDS011;6277;49.824;9.562;2023-06-14T01:05:44;3.30;;;2.35;;
12425;SDS011;6277;49.824;9.562;2023-06-14T01:10:46;3.60;;;2.00;;
12425;SDS011;6277;49.824;9.562;2023-06-14T01:13:37;3.13;;;2.08;;
12425;SDS011;6277;49.824;9.562;2023-06-14T01:16:05;3.05;;;2.10;;
12425;SDS011;6277;49.824;9.562;2023-06-14T01:18:31;4.70;;;2.10;;
12425;SDS011;6277;49.824;9.562;2023-06-14T01:20:57;2.63;;;2.00;;
12425;SDS011;6277;49.824;9.562;2023-06-14T01:23:23;2.38;;;1.77;;
12425;SDS011;6277;49.824;9.562;2023-06-14T01:25:49;3.05;;;2.17;;
12425;SDS011;6277;49.824;9.562;2023-06-14T01:28:18;2.65;;;2.00;;
12425;SDS011;6277;49.824;9.562;2023-06-14T01:30:46;3.17;;;2.10;;
12425;SDS011;6277;49.824;9.562;2023-06-14T01:33:15;2.10;;;1.80;;
12425;SDS011;6277;49.824;9.562;2023-06-14T01:35:43;3.50;;;2.10;;
12425;SDS011;6277;49.824;9.562;2023-06-14T01:38:15;2.75;;;2.22;;
12425;SDS011;6277;49.824;9.562;2023-06-14T01:40:43;4.65;;;2.00;;
12425;SDS011;6277;49.824;9.562;2023-06-14T01:43:09;2.20;;;2.00;;
12425;SDS011;6277;49.824;9.562;2023-06-14T01:45:37;4.43;;;2.00;;
12425;SDS011;6277;49.824;9.562;2023-06-14T01:48:05;2.33;;;1.90;;
12425;SDS011;6277;49.824;9.562;2023-06-14T01:50:31;4.05;;;1.83;;
12425;SDS011;6277;49.824;9.562;2023-06-14T01:52:57;2.75;;;2.00;;
12425;SDS011;6277;49.824;9.562;2023-06-14T01:55:23;3.10;;;2.25;;
12425;SDS011;6277;49.824;9.562;2023-06-14T01:57:49;3.65;;;2.20;;
12425;SDS011;6277;49.824;9.562;2023-06-14T02:00:16;3.83;;;2.13;;
12425;SDS011;6277;49.824;9.562;2023-06-14T02:02:43;4.25;;;2.25;;
12425;SDS011;6277;49.824;9.562;2023-06-14T02:05:09;3.10;;;2.40;;
12425;SDS011;6277;49.824;9.562;2023-06-14T02:07:35;2.95;;;2.10;;
12425;SDS011;6277;49.824;9.562;2023-06-14T02:10:01;2.42;;;2.10;;
12425;SDS011;6277;49.824;9.562;2023-06-14T02:12:27;2.40;;;2.03;;
12425;SDS011;6277;49.824;9.562;2023-06-14T02:14:53;3.10;;;1.80;;
12425;SDS011;6277;49.824;9.562;2023-06-14T02:17:19;2.78;;;1.92;;
12425;SDS011;6277;49.824;9.562;2023-06-14T02:19:45;13.70;;;2.30;;
12425;SDS011;6277;49.824;9.562;2023-06-14T02:22:10;2.80;;;2.10;;
12425;SDS011;6277;49.824;9.562;2023-06-14T02:24:36;2.88;;;2.35;;
12425;SDS011;6277;49.824;9.562;2023-06-14T02:27:02;3.08;;;2.28;;
12425;SDS011;6277;49.824;9.562;2023-06-14T02:29:28;3.55;;;2.28;;
12425;SDS011;6277;49.824;9.562;2023-06-14T02:31:54;2.60;;;2.10;;
12425;SDS011;6277;49.824;9.562;2023-06-14T02:34:19;3.13;;;2.08;;
12425;SDS011;6277;49.824;9.562;2023-06-14T02:36:46;2.80;;;2.35;;
12425;SDS011;6277;49.824;9.562;2023-06-14T02:39:13;2.92;;;2.30;;
12425;SDS011;6277;49.824;9.562;2023-06-14T02:41:38;2.30;;;2.05;;
12425;SDS011;6277;49.824;9.562;2023-06-14T02:44:04;1.98;;;1.77;;
12425;SDS011;6277;49.824;9.562;2023-06-14T02:46:30;3.65;;;2.67;;
12425;SDS011;6277;49.824;9.562;2023-06-14T02:48:56;4.55;;;2.95;;
12425;SDS011;6277;49.824;9.562;2023-06-14T02:51:21;3.85;;;2.70;;
12425;SDS011;6277;49.824;9.562;2023-06-14T02:53:47;3.10;;;2.30;;
12425;SDS011;6277;49.824;9.562;2023-06-14T02:56:12;3.65;;;2.50;;
12425;SDS011;6277;49.824;9.562;2023-06-14T02:58:38;3.20;;;2.45;;
12425;SDS011;6277;49.824;9.562;2023-06-14T03:01:04;2.65;;;2.33;;
12425;SDS011;6277;49.824;9.562;2023-06-14T03:03:32;2.88;;;2.38;;
12425;SDS011;6277;49.824;9.562;2023-06-14T03:05:58;3.10;;;2.50;;
12425;SDS011;6277;49.824;9.562;2023-06-14T03:08:29;3.22;;;2.30;;
12425;SDS011;6277;49.824;9.562;2023-06-14T03:10:54;3.88;;;2.60;;
12425;SDS011;6277;49.824;9.562;2023-06-14T03:13:21;4.55;;;3.03;;
12425;SDS011;6277;49.824;9.562;2023-06-14T03:15:47;3.85;;;2.80;;
12425;SDS011;6277;49.824;9.562;2023-06-14T03:18:15;4.18;;;2.65;;
12425;SDS011;6277;49.824;9.562;2023-06-14T03:20:41;3.40;;;3.00;;
12425;SDS011;6277;49.824;9.562;2023-06-14T03:23:10;3.08;;;2.60;;
12425;SDS011;6277;49.824;9.562;2023-06-14T03:25:36;4.15;;;2.70;;
12425;SDS011;6277;49.824;9.562;2023-06-14T03:28:03;3.08;;;2.78;;
12425;SDS011;6277;49.824;9.562;2023-06-14T03:30:29;4.35;;;2.72;;
12425;SDS011;6277;49.824;9.562;2023-06-14T03:32:56;2.55;;;2.28;;
12425;SDS011;6277;49.824;9.562;2023-06-14T03:35:22;3.60;;;2.90;;
12425;SDS011;6277;49.824;9.562;2023-06-14T03:37:48;3.88;;;2.80;;
12425;SDS011;6277;49.824;9.562;2023-06-14T03:40:15;4.10;;;2.75;;
12425;SDS011;6277;49.824;9.562;2023-06-14T03:42:41;4.88;;;3.05;;
12425;SDS011;6277;49.824;9.562;2023-06-14T03:45:07;4.00;;;2.90;;
12425;SDS011;6277;49.824;9.562;2023-06-14T03:47:33;3.50;;;2.78;;
12425;SDS011;6277;49.824;9.562;2023-06-14T03:49:59;3.45;;;2.75;;
12425;SDS011;6277;49.824;9.562;2023-06-14T03:52:26;3.40;;;2.55;;
12425;SDS011;6277;49.824;9.562;2023-06-14T03:54:52;3.33;;;2.35;;
12425;SDS011;6277;49.824;9.562;2023-06-14T03:57:18;5.93;;;2.78;;
12425;SDS011;6277;49.824;9.562;2023-06-14T03:59:45;3.65;;;2.45;;
12425;SDS011;6277;49.824;9.562;2023-06-14T04:02:10;2.95;;;2.20;;
12425;SDS011;6277;49.824;9.562;2023-06-14T04:04:36;3.53;;;2.08;;
12425;SDS011;6277;49.824;9.562;2023-06-14T04:07:02;2.50;;;1.92;;
12425;SDS011;6277;49.824;9.562;2023-06-14T04:09:30;3.30;;;2.53;;
12425;SDS011;6277;49.824;9.562;2023-06-14T04:11:56;2.63;;;2.08;;
12425;SDS011;6277;49.824;9.562;2023-06-14T04:14:22;3.58;;;2.17;;
12425;SDS011;6277;49.824;9.562;2023-06-14T04:16:48;3.22;;;2.03;;
12425;SDS011;6277;49.824;9.562;2023-06-14T04:19:17;2.90;;;2.08;;
12425;SDS011;6277;49.824;9.562;2023-06-14T04:21:43;3.05;;;2.17;;
12425;SDS011;6277;49.824;9.562;2023-06-14T04:24:08;4.03;;;2.25;;
12425;SDS011;6277;49.824;9.562;2023-06-14T04:26:48;2.25;;;2.00;;
12425;SDS011;6277;49.824;9.562;2023-06-14T04:29:14;4.50;;;2.00;;
12425;SDS011;6277;49.824;9.562;2023-06-14T04:31:41;3.42;;;2.00;;
12425;SDS011;6277;49.824;9.562;2023-06-14T04:34:08;2.65;;;1.98;;
12425;SDS011;6277;49.824;9.562;2023-06-14T04:36:34;3.55;;;2.13;;
12425;SDS011;6277;49.824;9.562;2023-06-14T04:39:01;2.60;;;1.80;;
12425;SDS011;6277;49.824;9.562;2023-06-14T04:41:29;3.65;;;2.15;;
12425;SDS011;6277;49.824;9.562;2023-06-14T04:43:55;2.47;;;2.28;;
12425;SDS011;6277;49.824;9.562;2023-06-14T04:46:23;3.15;;;1.90;;
12425;SDS011;6277;49.824;9.562;2023-06-14T04:48:49;2.10;;;1.90;;
12425;SDS011;6277;49.824;9.562;2023-06-14T04:51:15;3.30;;;1.98;;
12425;SDS011;6277;49.824;9.562;2023-06-14T04:53:41;3.47;;;2.20;;
12425;SDS011;6277;49.824;9.562;2023-06-14T04:56:07;2.83;;;1.90;;
12425;SDS011;6277;49.824;9.562;2023-06-14T04:58:33;2.78;;;1.85;;
12425;SDS011;6277;49.824;9.562;2023-06-14T05:00:59;2.35;;;2.05;;
12425;SDS011;6277;49.824;9.562;2023-06-14T05:03:25;2.60;;;1.90;;
12425;SDS011;6277;49.824;9.562;2023-06-14T05:05:51;2.30;;;1.70;;
12425;SDS011;6277;49.824;9.562;2023-06-14T05:08:18;3.08;;;1.95;;
12425;SDS011;6277;49.824;9.562;2023-06-14T05:10:45;4.05;;;1.98;;
12425;SDS011;6277;49.824;9.562;2023-06-14T05:13:10;3.40;;;1.95;;
12425;SDS011;6277;49.824;9.562;2023-06-14T05:15:36;2.22;;;1.80;;
12425;SDS011;6277;49.824;9.562;2023-06-14T05:18:01;3.60;;;1.85;;
12425;SDS011;6277;49.824;9.562;2023-06-14T05:20:27;4.00;;;1.98;;
12425;SDS011;6277;49.824;9.562;2023-06-14T05:22:53;4.28;;;2.17;;
12425;SDS011;6277;49.824;9.562;2023-06-14T05:25:19;2.65;;;1.88;;
12425;SDS011;6277;49.824;9.562;2023-06-14T05:27:46;3.05;;;2.08;;
12425;SDS011;6277;49.824;9.562;2023-06-14T05:30:12;2.65;;;1.98;;
12425;SDS011;6277;49.824;9.562;2023-06-14T05:32:38;2.30;;;2.05;;
12425;SDS011;6277;49.824;9.562;2023-06-14T05:35:04;3.47;;;1.98;;
12425;SDS011;6277;49.824;9.562;2023-06-14T05:37:30;3.30;;;2.60;;
12425;SDS011;6277;49.824;9.562;2023-06-14T05:39:56;3.30;;;2.00;;
12425;SDS011;6277;49.824;9.562;2023-06-14T05:42:22;2.08;;;1.88;;
12425;SDS011;6277;49.824;9.562;2023-06-14T05:44:47;2.95;;;2.03;;
12425;SDS011;6277;49.824;9.562;2023-06-14T05:47:13;2.40;;;1.98;;
12425;SDS011;6277;49.824;9.562;2023-06-14T05:49:38;2.65;;;2.08;;
12425;SDS011;6277;49.824;9.562;2023-06-14T05:52:04;2.42;;;2.08;;
12425;SDS011;6277;49.824;9.562;2023-06-14T05:54:30;2.53;;;2.00;;
12425;SDS011;6277;49.824;9.562;2023-06-14T05:56:56;5.65;;;2.10;;
12425;SDS011;6277;49.824;9.562;2023-06-14T05:59:26;3.42;;;2.20;;
12425;SDS011;6277;49.824;9.562;2023-06-14T06:01:54;3.13;;;2.25;;
12425;SDS011;6277;49.824;9.562;2023-06-14T06:04:20;2.40;;;1.73;;
12425;SDS011;6277;49.824;9.562;2023-06-14T06:06:46;2.17;;;1.70;;
12425;SDS011;6277;49.824;9.562;2023-06-14T06:09:12;4.40;;;2.15;;
12425;SDS011;6277;49.824;9.562;2023-06-14T06:11:39;2.35;;;1.67;;
12425;SDS011;6277;49.824;9.562;2023-06-14T06:14:05;3.10;;;1.95;;
12425;SDS011;6277;49.824;9.562;2023-06-14T06:16:31;3.20;;;1.90;;
12425;SDS011;6277;49.824;9.562;2023-06-14T06:18:56;3.33;;;1.70;;
12425;SDS011;6277;49.824;9.562;2023-06-14T06:21:22;2.70;;;2.00;;
12425;SDS011;6277;49.824;9.562;2023-06-14T06:23:47;4.22;;;2.03;;
12425;SDS011;6277;49.824;9.562;2023-06-14T06:26:13;2.70;;;1.88;;
12425;SDS011;6277;49.824;9.562;2023-06-14T06:28:38;2.47;;;1.65;;
12425;SDS011;6277;49.824;9.562;2023-06-14T06:31:04;3.00;;;2.00;;
12425;SDS011;6277;49.824;9.562;2023-06-14T06:33:30;5.20;;;1.77;;
12425;SDS011;6277;49.824;9.562;2023-06-14T06:35:55;2.20;;;2.00;;
12425;SDS011;6277;49.824;9.562;2023-06-14T06:38:21;2.35;;;1.85;;
12425;SDS011;6277;49.824;9.562;2023-06-14T06:40:47;2.92;;;2.20;;
12425;SDS011;6277;49.824;9.562;2023-06-14T06:43:12;2.22;;;1.83;;
12425;SDS011;6277;49.824;9.562;2023-06-14T06:45:39;1.83;;;1.60;;
12425;SDS011;6277;49.824;9.562;2023-06-14T06:48:07;2.38;;;1.77;;
12425;SDS011;6277;49.824;9.562;2023-06-14T06:50:35;2.08;;;1.88;;
12425;SDS011;6277;49.824;9.562;2023-06-14T06:53:01;3.20;;;1.77;;
12425;SDS011;6277;49.824;9.562;2023-06-14T06:55:26;2.85;;;1.90;;
12425;SDS011;6277;49.824;9.562;2023-06-14T06:57:52;2.10;;;1.75;;
12425;SDS011;6277;49.824;9.562;2023-06-14T07:00:18;1.85;;;1.70;;
12425;SDS011;6277;49.824;9.562;2023-06-14T07:02:45;2.35;;;1.90;;
12425;SDS011;6277;49.824;9.562;2023-06-14T07:05:10;2.45;;;2.00;;
12425;SDS011;6277;49.824;9.562;2023-06-14T07:07:36;2.42;;;1.83;;
12425;SDS011;6277;49.824;9.562;2023-06-14T07:10:02;3.38;;;1.73;;
12425;SDS011;6277;49.824;9.562;2023-06-14T07:12:29;2.72;;;1.88;;
12425;SDS011;6277;49.824;9.562;2023-06-14T07:14:59;2.20;;;1.77;;
12425;SDS011;6277;49.824;9.562;2023-06-14T07:17:24;2.80;;;1.52;;
12425;SDS011;6277;49.824;9.562;2023-06-14T07:19:50;2.63;;;1.80;;
12425;SDS011;6277;49.824;9.562;2023-06-14T07:22:16;2.53;;;1.70;;
12425;SDS011;6277;49.824;9.562;2023-06-14T07:24:42;2.28;;;1.60;;
12425;SDS011;6277;49.824;9.562;2023-06-14T07:27:08;2.33;;;1.77;;
12425;SDS011;6277;49.824;9.562;2023-06-14T07:29:33;2.40;;;1.77;;
12425;SDS011;6277;49.824;9.562;2023-06-14T07:31:59;2.63;;;1.60;;
12425;SDS011;6277;49.824;9.562;2023-06-14T07:34:25;5.50;;;2.03;;
12425;SDS011;6277;49.824;9.562;2023-06-14T07:36:51;3.10;;;1.80;;
12425;SDS011;6277;49.824;9.562;2023-06-14T07:39:16;2.50;;;1.63;;
12425;SDS011;6277;49.824;9.562;2023-06-14T07:41:42;2.22;;;1.80;;
12425;SDS011;6277;49.824;9.562;2023-06-14T07:44:07;2.20;;;1.88;;
12425;SDS011;6277;49.824;9.562;2023-06-14T07:46:33;2.40;;;1.60;;
12425;SDS011;6277;49.824;9.562;2023-06-14T07:48:59;2.53;;;1.70;;
12425;SDS011;6277;49.824;9.562;2023-06-14T07:51:25;2.17;;;1.73;;
12425;SDS011;6277;49.824;9.562;2023-06-14T07:53:51;2.58;;;1.80;;
12425;SDS011;6277;49.824;9.562;2023-06-14T07:56:16;1.90;;;1.70;;
12425;SDS011;6277;49.824;9.562;2023-06-14T07:58:42;3.08;;;1.98;;
12425;SDS011;6277;49.824;9.562;2023-06-14T08:01:08;3.50;;;1.80;;
12425;SDS011;6277;49.824;9.562;2023-06-14T08:03:34;2.63;;;1.60;;
12425;SDS011;6277;49.824;9.562;2023-06-14T08:05:59;2.90;;;1.63;;
12425;SDS011;6277;49.824;9.562;2023-06-14T08:08:25;2.75;;;1.90;;
12425;SDS011;6277;49.824;9.562;2023-06-14T08:10:51;2.33;;;2.10;;
12425;SDS011;6277;49.824;9.562;2023-06-14T08:13:17;2.20;;;1.85;;
12425;SDS011;6277;49.824;9.562;2023-06-14T08:15:42;2.72;;;1.45;;
12425;SDS011;6277;49.824;9.562;2023-06-14T08:18:08;2.55;;;1.80;;
12425;SDS011;6277;49.824;9.562;2023-06-14T08:20:34;2.60;;;1.75;;
12425;SDS011;6277;49.824;9.562;2023-06-14T08:23:00;6.45;;;2.15;;
12425;SDS011;6277;49.824;9.562;2023-06-14T08:25:27;2.88;;;2.20;;
12425;SDS011;6277;49.824;9.562;2023-06-14T08:27:52;2.55;;;1.73;;
12425;SDS011;6277;49.824;9.562;2023-06-14T08:30:18;3.03;;;1.55;;
12425;SDS011;6277;49.824;9.562;2023-06-14T08:32:44;2.08;;;1.50;;
12425;SDS011;6277;49.824;9.562;2023-06-14T08:35:09;3.80;;;1.77;;
12425;SDS011;6277;49.824;9.562;2023-06-14T08:37:38;1.95;;;1.63;;
12425;SDS011;6277;49.824;9.562;2023-06-14T08:40:06;1.95;;;1.58;;
12425;SDS011;6277;49.824;9.562;2023-06-14T08:42:44;2.78;;;1.50;;
12425;SDS011;6277;49.824;9.562;2023-06-14T08:45:11;3.63;;;1.83;;
12425;SDS011;6277;49.824;9.562;2023-06-14T08:47:37;4.10;;;1.60;;
12425;SDS011;6277;49.824;9.562;2023-06-14T08:50:03;2.08;;;1.55;;
12425;SDS011;6277;49.824;9.562;2023-06-14T08:52:31;6.50;;;1.77;;
12425;SDS011;6277;49.824;9.562;2023-06-14T08:55:05;5.18;;;1.80;;
12425;SDS011;6277;49.824;9.562;2023-06-14T08:57:31;2.05;;;1.80;;
12425;SDS011;6277;49.824;9.562;2023-06-14T08:59:59;2.42;;;1.65;;
12425;SDS011;6277;49.824;9.562;2023-06-14T09:02:30;3.90;;;1.70;;
12425;SDS011;6277;49.824;9.562;2023-06-14T09:04:55;2.00;;;1.58;;
12425;SDS011;6277;49.824;9.562;2023-06-14T09:07:24;2.45;;;1.75;;
12425;SDS011;6277;49.824;9.562;2023-06-14T09:10:03;3.45;;;1.70;;
12425;SDS011;6277;49.824;9.562;2023-06-14T09:12:38;4.47;;;1.70;;
12425;SDS011;6277;49.824;9.562;2023-06-14T09:15:04;4.65;;;1.58;;
12425;SDS011;6277;49.824;9.562;2023-06-14T09:17:33;2.35;;;1.67;;
12425;SDS011;6277;49.824;9.562;2023-06-14T09:20:00;1.88;;;1.55;;
12425;SDS011;6277;49.824;9.562;2023-06-14T09:22:29;1.77;;;1.50;;
12425;SDS011;6277;49.824;9.562;2023-06-14T09:24:55;1.85;;;1.60;;
12425;SDS011;6277;49.824;9.562;2023-06-14T09:27:21;1.90;;;1.60;;
12425;SDS011;6277;49.824;9.562;2023-06-14T09:29:46;1.92;;;1.73;;
12425;SDS011;6277;49.824;9.562;2023-06-14T09:32:12;5.63;;;1.52;;
12425;SDS011;6277;49.824;9.562;2023-06-14T09:34:37;2.17;;;1.60;;
12425;SDS011;6277;49.824;9.562;2023-06-14T09:37:03;2.08;;;1.38;;
12425;SDS011;6277;49.824;9.562;2023-06-14T09:39:29;2.17;;;1.70;;
12425;SDS011;6277;49.824;9.562;2023-06-14T09:41:55;2.92;;;1.48;;
12425;SDS011;6277;49.824;9.562;2023-06-14T09:44:20;1.92;;;1.50;;
12425;SDS011;6277;49.824;9.562;2023-06-14T09:46:50;3.20;;;1.27;;
12425;SDS011;6277;49.824;9.562;2023-06-14T09:49:16;1.52;;;1.42;;
12425;SDS011;6277;49.824;9.562;2023-06-14T09:51:42;2.30;;;1.60;;
12425;SDS011;6277;49.824;9.562;2023-06-14T09:54:13;2.60;;;1.58;;
12425;SDS011;6277;49.824;9.562;2023-06-14T09:56:41;3.38;;;1.90;;
12425;SDS011;6277;49.824;9.562;2023-06-14T09:59:09;1.70;;;1.50;;
12425;SDS011;6277;49.824;9.562;2023-06-14T10:01:40;2.05;;;1.40;;
12425;SDS011;6277;49.824;9.562;2023-06-14T10:04:07;1.60;;;1.50;;
12425;SDS011;6277;49.824;9.562;2023-06-14T10:06:41;1.73;;;1.35;;
12425;SDS011;6277;49.824;9.562;2023-06-14T10:09:10;1.92;;;1.60;;
12425;SDS011;6277;49.824;9.562;2023-06-14T10:11:36;3.05;;;1.50;;
12425;SDS011;6277;49.824;9.562;2023-06-14T10:14:08;2.88;;;1.65;;
12425;SDS011;6277;49.824;9.562;2023-06-14T10:24:32;2.13;;;1.60;;
12425;SDS011;6277;49.824;9.562;2023-06-14T10:27:01;3.67;;;1.70;;
12425;SDS011;6277;49.824;9.562;2023-06-14T10:29:27;1.63;;;1.42;;
12425;SDS011;6277;49.824;9.562;2023-06-14T10:31:57;1.48;;;1.33;;
12425;SDS011;6277;49.824;9.562;2023-06-14T10:34:27;2.47;;;1.40;;
12425;SDS011;6277;49.824;9.562;2023-06-14T10:37:00;2.88;;;1.65;;
12425;SDS011;6277;49.824;9.562;2023-06-14T10:39:28;2.10;;;1.45;;
12425;SDS011;6277;49.824;9.562;2023-06-14T10:41:55;2.15;;;1.27;;
12425;SDS011;6277;49.824;9.562;2023-06-14T10:46:53;1.40;;;1.30;;
12425;SDS011;6277;49.824;9.562;2023-06-14T10:49:19;2.28;;;1.55;;
12425;SDS011;6277;49.824;9.562;2023-06-14T10:52:02;1.73;;;1.33;;
12425;SDS011;6277;49.824;9.562;2023-06-14T10:54:28;1.60;;;1.20;;
12425;SDS011;6277;49.824;9.562;2023-06-14T10:56:53;2.22;;;1.50;;
12425;SDS011;6277;49.824;9.562;2023-06-14T10:59:20;3.60;;;1.40;;
12425;SDS011;6277;49.824;9.562;2023-06-14T11:04:48;2.38;;;1.10;;
12425;SDS011;6277;49.824;9.562;2023-06-14T11:15:05;1.67;;;1.10;;
12425;SDS011;6277;49.824;9.562;2023-06-14T11:17:32;2.75;;;1.40;;
12425;SDS011;6277;49.824;9.562;2023-06-14T11:20:11;2.10;;;1.10;;
12425;SDS011;6277;49.824;9.562;2023-06-14T11:22:43;1.70;;;1.23;;
12425;SDS011;6277;49.824;9.562;2023-06-14T11:25:11;6.05;;;1.48;;
12425;SDS011;6277;49.824;9.562;2023-06-14T11:27:37;1.73;;;1.48;;
12425;SDS011;6277;49.824;9.562;2023-06-14T11:30:03;2.35;;;1.40;;
12425;SDS011;6277;49.824;9.562;2023-06-14T11:32:32;1.80;;;1.23;;
12425;SDS011;6277;49.824;9.562;2023-06-14T11:34:57;1.80;;;1.30;;
12425;SDS011;6277;49.824;9.562;2023-06-14T11:37:29;1.63;;;1.30;;
12425;SDS011;6277;49.824;9.562;2023-06-14T11:39:57;1.17;;;0.98;;
12425;SDS011;6277;49.824;9.562;2023-06-14T11:42:24;2.42;;;1.25;;
12425;SDS011;6277;49.824;9.562;2023-06-14T11:44:51;1.73;;;1.20;;
12425;SDS011;6277;49.824;9.562;2023-06-14T11:47:18;2.08;;;1.25;;
12425;SDS011;6277;49.824;9.562;2023-06-14T11:49:44;2.97;;;1.20;;
12425;SDS011;6277;49.824;9.562;2023-06-14T11:52:10;1.15;;;1.05;;
12425;SDS011;6277;49.824;9.562;2023-06-14T11:54:36;2.08;;;1.17;;
12425;SDS011;6277;49.824;9.562;2023-06-14T11:57:02;1.95;;;1.10;;
12425;SDS011;6277;49.824;9.562;2023-06-14T11:59:29;1.48;;;1.38;;
12425;SDS011;6277;49.824;9.562;2023-06-14T12:01:56;1.17;;;1.08;;
12425;SDS011;6277;49.824;9.562;2023-06-14T12:04:28;1.20;;;1.10;;
12425;SDS011;6277;49.824;9.562;2023-06-14T12:06:55;1.63;;;1.35;;
12425;SDS011;6277;49.824;9.562;2023-06-14T12:09:22;1.27;;;1.17;;
12425;SDS011;6277;49.824;9.562;2023-06-14T12:11:50;1.67;;;1.40;;
12425;SDS011;6277;49.824;9.562;2023-06-14T12:14:28;3.25;;;1.00;;
12425;SDS011;6277;49.824;9.562;2023-06-14T12:17:03;1.10;;;1.00;;
12425;SDS011;6277;49.824;9.562;2023-06-14T12:19:33;1.45;;;1.23;;
12425;SDS011;6277;49.824;9.562;2023-06-14T12:22:08;1.75;;;1.33;;
12425;SDS011;6277;49.824;9.562;2023-06-14T12:24:35;2.65;;;1.30;;
12425;SDS011;6277;49.824;9.562;2023-06-14T12:27:00;2.75;;;1.20;;
12425;SDS011;6277;49.824;9.562;2023-06-14T12:29:28;1.52;;;1.15;;
12425;SDS011;6277;49.824;9.562;2023-06-14T12:31:54;1.40;;;1.10;;
12425;SDS011;6277;49.824;9.562;2023-06-14T12:34:21;2.58;;;1.30;;
12425;SDS011;6277;49.824;9.562;2023-06-14T12:36:51;1.27;;;1.17;;
12425;SDS011;6277;49.824;9.562;2023-06-14T12:39:18;1.58;;;1.05;;
12425;SDS011;6277;49.824;9.562;2023-06-14T12:41:44;1.35;;;1.08;;
12425;SDS011;6277;49.824;9.562;2023-06-14T12:44:13;1.70;;;1.08;;
12425;SDS011;6277;49.824;9.562;2023-06-14T12:46:41;1.63;;;1.20;;
12425;SDS011;6277;49.824;9.562;2023-06-14T12:49:09;2.35;;;1.13;;
12425;SDS011;6277;49.824;9.562;2023-06-14T12:51:38;1.40;;;1.10;;
12425;SDS011;6277;49.824;9.562;2023-06-14T12:54:04;1.45;;;1.08;;
12425;SDS011;6277;49.824;9.562;2023-06-14T12:56:30;1.42;;;1.08;;
12425;SDS011;6277;49.824;9.562;2023-06-14T12:58:56;1.55;;;1.00;;
12425;SDS011;6277;49.824;9.562;2023-06-14T13:01:21;1.05;;;0.95;;
12425;SDS011;6277;49.824;9.562;2023-06-14T13:03:47;1.00;;;0.90;;
12425;SDS011;6277;49.824;9.562;2023-06-14T13:06:13;1.88;;;1.10;;
12425;SDS011;6277;49.824;9.562;2023-06-14T13:08:38;1.50;;;1.00;;
12425;SDS011;6277;49.824;9.562;2023-06-14T13:11:04;1.17;;;1.08;;
12425;SDS011;6277;49.824;9.562;2023-06-14T13:13:30;1.58;;;1.08;;
12425;SDS011;6277;49.824;9.562;2023-06-14T13:15:55;1.40;;;1.00;;
12425;SDS011;6277;49.824;9.562;2023-06-14T13:18:21;1.08;;;1.00;;
12425;SDS011;6277;49.824;9.562;2023-06-14T13:20:46;1.10;;;1.00;;
12425;SDS011;6277;49.824;9.562;2023-06-14T13:23:12;1.52;;;1.15;;
12425;SDS011;6277;49.824;9.562;2023-06-14T13:25:38;2.78;;;1.13;;
12425;SDS011;6277;49.824;9.562;2023-06-14T13:28:05;1.00;;;1.00;;
12425;SDS011;6277;49.824;9.562;2023-06-14T13:30:31;1.45;;;1.00;;
12425;SDS011;6277;49.824;9.562;2023-06-14T13:32:57;1.20;;;1.08;;
12425;SDS011;6277;49.824;9.562;2023-06-14T13:35:23;1.33;;;1.10;;
12425;SDS011;6277;49.824;9.562;2023-06-14T13:37:49;1.13;;;1.02;;
12425;SDS011;6277;49.824;9.562;2023-06-14T13:40:15;1.13;;;0.93;;
12425;SDS011;6277;49.824;9.562;2023-06-14T13:42:41;1.02;;;0.90;;
12425;SDS011;6277;49.824;9.562;2023-06-14T13:45:07;1.10;;;1.00;;
12425;SDS011;6277;49.824;9.562;2023-06-14T13:47:33;2.20;;;1.00;;
12425;SDS011;6277;49.824;9.562;2023-06-14T13:49:59;1.00;;;0.90;;
12425;SDS011;6277;49.824;9.562;2023-06-14T13:52:25;1.33;;;1.05;;
12425;SDS011;6277;49.824;9.562;2023-06-14T13:54:51;1.15;;;1.00;;
12425;SDS011;6277;49.824;9.562;2023-06-14T13:57:16;2.03;;;1.20;;
12425;SDS011;6277;49.824;9.562;2023-06-14T13:59:43;1.10;;;1.00;;
12425;SDS011;6277;49.824;9.562;2023-06-14T14:02:12;1.02;;;0.90;;
12425;SDS011;6277;49.824;9.562;2023-06-14T14:04:38;1.30;;;1.20;;
12425;SDS011;6277;49.824;9.562;2023-06-14T14:07:04;1.33;;;1.08;;
12425;SDS011;6277;49.824;9.562;2023-06-14T14:09:31;1.58;;;0.90;;
12425;SDS011;6277;49.824;9.562;2023-06-14T14:11:58;1.42;;;1.10;;
12425;SDS011;6277;49.824;9.562;2023-06-14T14:14:23;4.85;;;1.27;;
12425;SDS011;6277;49.824;9.562;2023-06-14T14:16:49;2.40;;;1.23;;
12425;SDS011;6277;49.824;9.562;2023-06-14T14:19:16;1.13;;;1.00;;
12425;SDS011;6277;49.824;9.562;2023-06-14T14:21:43;1.00;;;0.90;;
12425;SDS011;6277;49.824;9.562;2023-06-14T14:24:09;1.00;;;0.95;;
12425;SDS011;6277;49.824;9.562;2023-06-14T14:26:35;1.92;;;1.20;;
12425;SDS011;6277;49.824;9.562;2023-06-14T14:29:00;1.50;;;1.00;;
12425;SDS011;6277;49.824;9.562;2023-06-14T14:31:27;1.20;;;1.10;;
12425;SDS011;6277;49.824;9.562;2023-06-14T14:33:53;3.42;;;1.13;;
12425;SDS011;6277;49.824;9.562;2023-06-14T14:36:18;2.83;;;1.10;;
12425;SDS011;6277;49.824;9.562;2023-06-14T14:38:44;2.85;;;1.08;;
12425;SDS011;6277;49.824;9.562;2023-06-14T14:41:10;1.35;;;1.05;;
12425;SDS011;6277;49.824;9.562;2023-06-14T14:43:35;1.10;;;1.00;;
12425;SDS011;6277;49.824;9.562;2023-06-14T14:46:01;1.10;;;1.00;;
12425;SDS011;6277;49.824;9.562;2023-06-14T14:48:27;1.38;;;0.90;;
12425;SDS011;6277;49.824;9.562;2023-06-14T14:50:52;2.22;;;0.95;;
12425;SDS011;6277;49.824;9.562;2023-06-14T14:53:18;2.38;;;1.10;;
12425;SDS011;6277;49.824;9.562;2023-06-14T14:55:43;1.38;;;0.98;;
12425;SDS011;6277;49.824;9.562;2023-06-14T14:58:11;8.88;;;1.67;;
12425;SDS011;6277;49.824;9.562;2023-06-14T15:00:37;1.23;;;0.90;;
12425;SDS011;6277;49.824;9.562;2023-06-14T15:03:03;42.60;;;3.45;;
12425;SDS011;6277;49.824;9.562;2023-06-14T15:05:28;1.60;;;1.02;;
12425;SDS011;6277;49.824;9.562;2023-06-14T15:07:54;1.00;;;0.90;;
12425;SDS011;6277;49.824;9.562;2023-06-14T15:10:19;1.38;;;1.00;;
12425;SDS011;6277;49.824;9.562;2023-06-14T15:12:45;1.10;;;1.00;;
12425;SDS011;6277;49.824;9.562;2023-06-14T15:15:10;1.20;;;0.98;;
12425;SDS011;6277;49.824;9.562;2023-06-14T15:17:36;0.80;;;0.70;;
12425;SDS011;6277;49.824;9.562;2023-06-14T15:20:01;2.83;;;0.80;;
12425;SDS011;6277;49.824;9.562;2023-06-14T15:22:27;1.20;;;0.88;;